sensor_id;sensor_type;location;lat;lon;timestamp;pressure;altitude;pressure_sealevel;temperature;humidity
73429;BME280;61643;49.564;17.412;2023-04-29T00:01:20;97926.53;;;9.90;83.09
73429;BME280;61643;49.564;17.412;2023-04-29T00:03:46;97932.41;;;9.82;84.90
73429;BME280;61643;49.564;17.412;2023-04-29T00:06:12;97923.00;;;9.84;85.03
73429;BME280;61643;49.564;17.412;2023-04-29T00:08:38;97923.53;;;9.81;84.66
73429;BME280;61643;49.564;17.412;2023-04-29T00:11:04;97925.16;;;9.82;85.38
73429;BME280;61643;49.564;17.412;2023-04-29T00:13:31;97928.59;;;9.73;86.71
73429;BME280;61643;49.564;17.412;2023-04-29T00:15:56;97930.69;;;9.71;86.12
73429;BME280;61643;49.564;17.412;2023-04-29T00:18:23;97925.91;;;9.73;86.64
73429;BME280;61643;49.564;17.412;2023-04-29T00:20:49;97927.25;;;9.75;86.23
73429;BME280;61643;49.564;17.412;2023-04-29T00:23:15;97927.53;;;9.79;86.15
73429;BME280;61643;49.564;17.412;2023-04-29T00:25:41;97929.41;;;9.78;86.40
73429;BME280;61643;49.564;17.412;2023-04-29T00:28:06;97931.03;;;9.79;86.78
73429;BME280;61643;49.564;17.412;2023-04-29T00:30:33;97934.25;;;9.76;87.99
73429;BME280;61643;49.564;17.412;2023-04-29T00:32:59;97924.81;;;9.74;88.32
73429;BME280;61643;49.564;17.412;2023-04-29T00:35:25;97924.78;;;9.69;88.25
73429;BME280;61643;49.564;17.412;2023-04-29T00:37:51;97925.59;;;9.69;88.69
73429;BME280;61643;49.564;17.412;2023-04-29T00:40:17;97914.81;;;9.64;88.96
73429;BME280;61643;49.564;17.412;2023-04-29T00:42:43;97921.50;;;9.62;88.49
73429;BME280;61643;49.564;17.412;2023-04-29T00:45:10;97917.16;;;9.56;89.02
73429;BME280;61643;49.564;17.412;2023-04-29T00:47:36;97918.56;;;9.63;87.03
73429;BME280;61643;49.564;17.412;2023-04-29T00:50:04;97919.41;;;9.69;86.89
73429;BME280;61643;49.564;17.412;2023-04-29T00:52:31;97916.72;;;9.69;86.70
73429;BME280;61643;49.564;17.412;2023-04-29T00:54:58;97921.50;;;9.62;89.25
73429;BME280;61643;49.564;17.412;2023-04-29T00:57:24;97917.97;;;9.56;87.56
73429;BME280;61643;49.564;17.412;2023-04-29T00:59:57;97915.63;;;9.65;86.11
73429;BME280;61643;49.564;17.412;2023-04-29T01:02:24;97908.63;;;9.64;86.16
73429;BME280;61643;49.564;17.412;2023-04-29T01:04:51;97908.09;;;9.67;86.36
73429;BME280;61643;49.564;17.412;2023-04-29T01:09:54;97911.13;;;9.75;85.76
73429;BME280;61643;49.564;17.412;2023-04-29T01:15:05;97916.78;;;9.79;85.24
73429;BME280;61643;49.564;17.412;2023-04-29T01:17:37;97912.94;;;9.70;86.42
73429;BME280;61643;49.564;17.412;2023-04-29T01:20:05;97903.28;;;9.69;86.08
73429;BME280;61643;49.564;17.412;2023-04-29T01:22:32;97901.19;;;9.76;85.69
73429;BME280;61643;49.564;17.412;2023-04-29T01:24:57;97897.91;;;9.69;86.76
73429;BME280;61643;49.564;17.412;2023-04-29T01:30:46;97897.91;;;9.69;86.72
73429;BME280;61643;49.564;17.412;2023-04-29T01:36:21;97902.44;;;9.63;87.17
73429;BME280;61643;49.564;17.412;2023-04-29T01:39:36;97901.63;;;9.63;86.87
73429;BME280;61643;49.564;17.412;2023-04-29T01:42:05;97911.59;;;9.67;86.53
73429;BME280;61643;49.564;17.412;2023-04-29T01:44:34;97894.38;;;9.63;87.42
73429;BME280;61643;49.564;17.412;2023-04-29T01:47:01;97903.41;;;9.52;88.40
73429;BME280;61643;49.564;17.412;2023-04-29T01:49:28;97898.91;;;9.58;88.50
73429;BME280;61643;49.564;17.412;2023-04-29T01:51:54;97908.03;;;9.57;88.25
73429;BME280;61643;49.564;17.412;2023-04-29T01:54:20;97908.63;;;9.64;88.26
73429;BME280;61643;49.564;17.412;2023-04-29T01:56:47;97907.00;;;9.63;87.98
73429;BME280;61643;49.564;17.412;2023-04-29T01:59:13;97895.72;;;9.66;87.92
73429;BME280;61643;49.564;17.412;2023-04-29T02:01:39;97902.13;;;9.60;88.73
73429;BME280;61643;49.564;17.412;2023-04-29T02:04:05;97889.75;;;9.54;88.35
73429;BME280;61643;49.564;17.412;2023-04-29T02:06:31;97879.00;;;9.59;88.81
73429;BME280;61643;49.564;17.412;2023-04-29T02:08:58;97883.38;;;9.65;88.00
73429;BME280;61643;49.564;17.412;2023-04-29T02:11:26;97877.72;;;9.61;88.49
73429;BME280;61643;49.564;17.412;2023-04-29T02:13:52;97879.59;;;9.61;88.84
73429;BME280;61643;49.564;17.412;2023-04-29T02:16:19;97880.41;;;9.66;87.19
73429;BME280;61643;49.564;17.412;2023-04-29T02:18:45;97869.91;;;9.60;88.31
73429;BME280;61643;49.564;17.412;2023-04-29T02:21:11;97868.06;;;9.65;87.79
73429;BME280;61643;49.564;17.412;2023-04-29T02:23:37;97863.41;;;9.56;88.38
73429;BME280;61643;49.564;17.412;2023-04-29T02:26:03;97857.47;;;9.49;88.91
73429;BME280;61643;49.564;17.412;2023-04-29T02:28:34;97858.31;;;9.54;88.52
73429;BME280;61643;49.564;17.412;2023-04-29T02:31:00;97859.59;;;9.47;89.92
73429;BME280;61643;49.564;17.412;2023-04-29T02:33:26;97861.00;;;9.54;88.73
73429;BME280;61643;49.564;17.412;2023-04-29T02:35:52;97862.41;;;9.62;88.28
73429;BME280;61643;49.564;17.412;2023-04-29T02:38:18;97874.22;;;9.61;89.36
73429;BME280;61643;49.564;17.412;2023-04-29T02:40:45;97864.00;;;9.63;88.46
73429;BME280;61643;49.564;17.412;2023-04-29T02:43:12;97860.25;;;9.64;88.37
73429;BME280;61643;49.564;17.412;2023-04-29T02:45:38;97865.09;;;9.62;88.66
73429;BME280;61643;49.564;17.412;2023-04-29T02:48:05;97864.03;;;9.68;88.23
73429;BME280;61643;49.564;17.412;2023-04-29T02:50:31;97865.09;;;9.67;88.41
73429;BME280;61643;49.564;17.412;2023-04-29T02:52:57;97864.56;;;9.65;88.90
73429;BME280;61643;49.564;17.412;2023-04-29T02:55:23;97859.44;;;9.63;88.23
73429;BME280;61643;49.564;17.412;2023-04-29T02:57:49;97866.44;;;9.64;88.36
73429;BME280;61643;49.564;17.412;2023-04-29T03:00:15;97866.41;;;9.59;89.83
73429;BME280;61643;49.564;17.412;2023-04-29T03:02:42;97858.56;;;9.53;90.30
73429;BME280;61643;49.564;17.412;2023-04-29T03:05:08;97858.56;;;9.53;90.06
73429;BME280;61643;49.564;17.412;2023-04-29T03:07:34;97852.66;;;9.56;89.97
73429;BME280;61643;49.564;17.412;2023-04-29T03:10:00;97851.59;;;9.57;90.12
73429;BME280;61643;49.564;17.412;2023-04-29T03:12:26;97861.88;;;9.65;89.00
73429;BME280;61643;49.564;17.412;2023-04-29T03:14:52;97850.56;;;9.63;89.79
73429;BME280;61643;49.564;17.412;2023-04-29T03:17:18;97847.63;;;9.64;89.21
73429;BME280;61643;49.564;17.412;2023-04-29T03:19:44;97850.59;;;9.68;89.10
73429;BME280;61643;49.564;17.412;2023-04-29T03:22:10;97841.97;;;9.61;89.46
73429;BME280;61643;49.564;17.412;2023-04-29T03:24:37;97859.16;;;9.60;89.20
73429;BME280;61643;49.564;17.412;2023-04-29T03:27:03;97859.16;;;9.60;89.86
73429;BME280;61643;49.564;17.412;2023-04-29T03:29:30;97864.00;;;9.63;89.58
73429;BME280;61643;49.564;17.412;2023-04-29T03:31:56;97870.19;;;9.63;89.92
73429;BME280;61643;49.564;17.412;2023-04-29T03:34:23;97870.41;;;9.57;91.36
73429;BME280;61643;49.564;17.412;2023-04-29T03:36:49;97871.47;;;9.56;91.92
73429;BME280;61643;49.564;17.412;2023-04-29T03:39:19;97872.84;;;9.58;91.39
73429;BME280;61643;49.564;17.412;2023-04-29T03:41:46;97879.81;;;9.59;90.85
73429;BME280;61643;49.564;17.412;2023-04-29T03:44:12;97871.47;;;9.51;91.95
73429;BME280;61643;49.564;17.412;2023-04-29T03:46:38;97883.84;;;9.57;91.54
73429;BME280;61643;49.564;17.412;2023-04-29T03:49:04;97885.44;;;9.53;91.87
73429;BME280;61643;49.564;17.412;2023-04-29T03:51:30;97887.59;;;9.56;91.43
73429;BME280;61643;49.564;17.412;2023-04-29T03:53:56;97885.13;;;9.49;92.20
73429;BME280;61643;49.564;17.412;2023-04-29T03:56:22;97888.88;;;9.48;92.45
73429;BME280;61643;49.564;17.412;2023-04-29T03:58:53;97899.13;;;9.51;92.55
73429;BME280;61643;49.564;17.412;2023-04-29T04:01:19;97898.03;;;9.47;92.07
73429;BME280;61643;49.564;17.412;2023-04-29T04:03:45;97896.44;;;9.51;92.30
73429;BME280;61643;49.564;17.412;2023-04-29T04:06:11;97899.69;;;9.53;92.89
73429;BME280;61643;49.564;17.412;2023-04-29T04:08:37;97907.78;;;9.58;92.00
73429;BME280;61643;49.564;17.412;2023-04-29T04:11:03;97902.94;;;9.60;92.22
73429;BME280;61643;49.564;17.412;2023-04-29T04:13:29;97908.09;;;9.67;91.16
73429;BME280;61643;49.564;17.412;2023-04-29T04:15:55;97903.25;;;9.64;91.37
73429;BME280;61643;49.564;17.412;2023-04-29T04:18:21;97905.41;;;9.62;92.54
73429;BME280;61643;49.564;17.412;2023-04-29T04:20:47;97912.63;;;9.61;92.54
73429;BME280;61643;49.564;17.412;2023-04-29T04:23:13;97907.84;;;9.68;92.37
73429;BME280;61643;49.564;17.412;2023-04-29T04:25:47;97905.69;;;9.65;91.98
73429;BME280;61643;49.564;17.412;2023-04-29T04:28:13;97908.09;;;9.67;91.67
73429;BME280;61643;49.564;17.412;2023-04-29T04:30:39;97898.22;;;9.72;91.13
73429;BME280;61643;49.564;17.412;2023-04-29T04:33:05;97896.75;;;9.60;92.50
73429;BME280;61643;49.564;17.412;2023-04-29T04:35:31;97885.53;;;9.68;91.07
73429;BME280;61643;49.564;17.412;2023-04-29T04:37:57;97892.84;;;9.72;90.73
73429;BME280;61643;49.564;17.412;2023-04-29T04:40:24;97885.34;;;9.79;90.69
73429;BME280;61643;49.564;17.412;2023-04-29T04:42:50;97898.03;;;9.89;89.54
73429;BME280;61643;49.564;17.412;2023-04-29T04:45:15;97887.03;;;9.91;90.33
73429;BME280;61643;49.564;17.412;2023-04-29T04:47:43;97883.78;;;9.88;90.29
73429;BME280;61643;49.564;17.412;2023-04-29T04:50:09;97880.06;;;9.95;89.92
73429;BME280;61643;49.564;17.412;2023-04-29T04:52:35;97880.84;;;9.90;90.94
73429;BME280;61643;49.564;17.412;2023-04-29T04:55:01;97877.09;;;9.96;90.78
73429;BME280;61643;49.564;17.412;2023-04-29T04:57:27;97876.84;;;9.98;91.67
73429;BME280;61643;49.564;17.412;2023-04-29T04:59:53;97880.31;;;9.93;91.29
73429;BME280;61643;49.564;17.412;2023-04-29T05:02:19;97888.41;;;9.98;91.08
73429;BME280;61643;49.564;17.412;2023-04-29T05:04:45;97884.94;;;9.98;91.06
73429;BME280;61643;49.564;17.412;2023-04-29T05:07:11;97879.78;;;9.96;91.13
73429;BME280;61643;49.564;17.412;2023-04-29T05:09:37;97881.66;;;9.91;91.90
73429;BME280;61643;49.564;17.412;2023-04-29T05:12:03;97884.34;;;9.96;91.11
73429;BME280;61643;49.564;17.412;2023-04-29T05:14:29;97879.25;;;9.94;91.39
73429;BME280;61643;49.564;17.412;2023-04-29T05:16:58;97885.16;;;9.91;92.05
73429;BME280;61643;49.564;17.412;2023-04-29T05:19:24;97887.31;;;9.94;92.23
73429;BME280;61643;49.564;17.412;2023-04-29T05:21:50;97891.34;;;9.97;91.79
73429;BME280;61643;49.564;17.412;2023-04-29T05:24:16;97882.47;;;9.96;92.29
73429;BME280;61643;49.564;17.412;2023-04-29T05:26:43;97890.53;;;9.96;92.51
73429;BME280;61643;49.564;17.412;2023-04-29T05:29:09;97885.16;;;9.96;91.80
73429;BME280;61643;49.564;17.412;2023-04-29T05:31:36;97888.91;;;9.95;91.75
73429;BME280;61643;49.564;17.412;2023-04-29T05:34:04;97882.22;;;9.98;91.76
73429;BME280;61643;49.564;17.412;2023-04-29T05:36:30;97882.25;;;10.03;91.46
73429;BME280;61643;49.564;17.412;2023-04-29T05:38:56;97879.06;;;10.11;91.21
73429;BME280;61643;49.564;17.412;2023-04-29T05:41:22;97884.19;;;10.12;91.38
73429;BME280;61643;49.564;17.412;2023-04-29T05:43:50;97889.28;;;10.14;90.83
73429;BME280;61643;49.564;17.412;2023-04-29T05:46:16;97901.72;;;10.15;90.81
73429;BME280;61643;49.564;17.412;2023-04-29T05:48:42;97898.78;;;10.21;90.30
73429;BME280;61643;49.564;17.412;2023-04-29T05:51:08;97907.41;;;10.23;90.10
73429;BME280;61643;49.564;17.412;2023-04-29T05:53:34;97913.06;;;10.27;90.17
73429;BME280;61643;49.564;17.412;2023-04-29T05:56:00;97909.03;;;10.29;90.64
73429;BME280;61643;49.564;17.412;2023-04-29T05:58:31;97905.00;;;10.32;91.28
73429;BME280;61643;49.564;17.412;2023-04-29T06:00:57;97919.28;;;10.32;90.96
73429;BME280;61643;49.564;17.412;2023-04-29T06:03:23;97913.38;;;10.35;90.17
73429;BME280;61643;49.564;17.412;2023-04-29T06:05:49;97914.75;;;10.38;91.28
73429;BME280;61643;49.564;17.412;2023-04-29T06:08:15;97915.28;;;10.40;90.32
73429;BME280;61643;49.564;17.412;2023-04-29T06:10:41;97916.91;;;10.46;90.56
73429;BME280;61643;49.564;17.412;2023-04-29T06:13:07;97919.34;;;10.53;90.32
73429;BME280;61643;49.564;17.412;2023-04-29T06:15:33;97923.66;;;10.54;90.61
73429;BME280;61643;49.564;17.412;2023-04-29T06:17:59;97927.44;;;10.58;90.06
73429;BME280;61643;49.564;17.412;2023-04-29T06:20:25;97934.47;;;10.59;89.35
73429;BME280;61643;49.564;17.412;2023-04-29T06:22:51;97929.84;;;10.54;90.74
73429;BME280;61643;49.564;17.412;2023-04-29T06:25:17;97929.91;;;10.59;89.92
73429;BME280;61643;49.564;17.412;2023-04-29T06:27:43;97932.06;;;10.62;89.09
73429;BME280;61643;49.564;17.412;2023-04-29T06:30:10;97936.66;;;10.67;90.32
73429;BME280;61643;49.564;17.412;2023-04-29T06:32:40;97925.88;;;10.67;90.86
73429;BME280;61643;49.564;17.412;2023-04-29T06:35:06;97921.84;;;10.69;90.37
73429;BME280;61643;49.564;17.412;2023-04-29T06:37:32;97926.69;;;10.72;90.06
73429;BME280;61643;49.564;17.412;2023-04-29T06:39:58;97915.13;;;10.72;90.15
73429;BME280;61643;49.564;17.412;2023-04-29T06:42:24;97927.78;;;10.76;89.89
73429;BME280;61643;49.564;17.412;2023-04-29T06:44:50;97917.56;;;10.78;89.50
73429;BME280;61643;49.564;17.412;2023-04-29T06:47:16;97907.31;;;10.75;88.98
73429;BME280;61643;49.564;17.412;2023-04-29T06:49:42;97907.88;;;10.77;88.95
73429;BME280;61643;49.564;17.412;2023-04-29T06:52:08;97899.53;;;10.89;88.01
73429;BME280;61643;49.564;17.412;2023-04-29T06:54:34;97907.38;;;10.96;87.85
73429;BME280;61643;49.564;17.412;2023-04-29T06:57:00;97910.34;;;10.99;86.39
73429;BME280;61643;49.564;17.412;2023-04-29T06:59:27;97916.56;;;11.10;86.59
73429;BME280;61643;49.564;17.412;2023-04-29T07:01:52;97918.16;;;11.11;86.53
73429;BME280;61643;49.564;17.412;2023-04-29T07:04:18;97914.66;;;11.05;86.70
73429;BME280;61643;49.564;17.412;2023-04-29T07:06:44;97918.44;;;11.04;87.12
73429;BME280;61643;49.564;17.412;2023-04-29T07:09:12;97918.97;;;11.01;86.58
73429;BME280;61643;49.564;17.412;2023-04-29T07:11:41;97917.34;;;11.00;86.32
73429;BME280;61643;49.564;17.412;2023-04-29T07:14:07;97913.84;;;11.05;86.02
73429;BME280;61643;49.564;17.412;2023-04-29T07:16:33;97917.63;;;11.09;86.73
73429;BME280;61643;49.564;17.412;2023-04-29T07:18:59;97924.09;;;11.08;87.40
73429;BME280;61643;49.564;17.412;2023-04-29T07:21:25;97921.41;;;11.03;86.42
73429;BME280;61643;49.564;17.412;2023-04-29T07:23:51;97921.13;;;10.99;88.88
73429;BME280;61643;49.564;17.412;2023-04-29T07:26:18;97927.28;;;11.00;87.86
73429;BME280;61643;49.564;17.412;2023-04-29T07:28:44;97925.16;;;11.02;88.57
73429;BME280;61643;49.564;17.412;2023-04-29T07:31:10;97927.56;;;10.98;89.60
73429;BME280;61643;49.564;17.412;2023-04-29T07:33:37;97922.72;;;10.95;90.60
73429;BME280;61643;49.564;17.412;2023-04-29T07:36:03;97928.38;;;10.94;90.90
73429;BME280;61643;49.564;17.412;2023-04-29T07:38:29;97920.56;;;10.97;90.36
73429;BME280;61643;49.564;17.412;2023-04-29T07:40:55;97924.34;;;11.01;90.68
73429;BME280;61643;49.564;17.412;2023-04-29T07:43:21;97918.44;;;11.04;90.29
73429;BME280;61643;49.564;17.412;2023-04-29T07:45:47;97935.69;;;11.03;89.83
73429;BME280;61643;49.564;17.412;2023-04-29T07:48:13;97938.91;;;11.05;90.00
73429;BME280;61643;49.564;17.412;2023-04-29T07:50:39;97937.03;;;11.06;90.02
73429;BME280;61643;49.564;17.412;2023-04-29T07:53:05;97939.97;;;11.04;90.55
73429;BME280;61643;49.564;17.412;2023-04-29T07:55:32;97946.16;;;11.00;91.15
73429;BME280;61643;49.564;17.412;2023-04-29T07:57:58;97933.50;;;10.95;92.09
73429;BME280;61643;49.564;17.412;2023-04-29T08:00:24;97935.09;;;10.96;91.77
73429;BME280;61643;49.564;17.412;2023-04-29T08:02:54;97935.13;;;11.01;91.71
73429;BME280;61643;49.564;17.412;2023-04-29T08:05:21;97932.19;;;11.03;93.07
73429;BME280;61643;49.564;17.412;2023-04-29T08:07:48;97944.81;;;11.07;91.50
73429;BME280;61643;49.564;17.412;2023-04-29T08:10:15;97930.28;;;11.08;90.90
73429;BME280;61643;49.564;17.412;2023-04-29T08:12:44;97937.56;;;11.08;91.90
73429;BME280;61643;49.564;17.412;2023-04-29T08:15:10;97934.59;;;11.14;91.43
73429;BME280;61643;49.564;17.412;2023-04-29T08:17:36;97930.28;;;11.18;91.32
73429;BME280;61643;49.564;17.412;2023-04-29T08:20:03;97933.56;;;11.20;92.79
73429;BME280;61643;49.564;17.412;2023-04-29T08:22:29;97937.34;;;11.24;93.68
73429;BME280;61643;49.564;17.412;2023-04-29T08:24:55;97936.78;;;11.27;92.60
73429;BME280;61643;49.564;17.412;2023-04-29T08:27:22;97936.78;;;11.32;92.16
73429;BME280;61643;49.564;17.412;2023-04-29T08:29:48;97942.72;;;11.34;93.02
73429;BME280;61643;49.564;17.412;2023-04-29T08:32:14;97941.63;;;11.41;91.64
73429;BME280;61643;49.564;17.412;2023-04-29T08:34:40;97937.88;;;11.47;90.86
73429;BME280;61643;49.564;17.412;2023-04-29T08:37:06;97947.59;;;11.43;90.70
73429;BME280;61643;49.564;17.412;2023-04-29T08:39:32;97954.03;;;11.42;90.36
73429;BME280;61643;49.564;17.412;2023-04-29T08:41:58;97950.53;;;11.31;89.57
73429;BME280;61643;49.564;17.412;2023-04-29T08:44:25;97947.56;;;11.32;88.42
73429;BME280;61643;49.564;17.412;2023-04-29T08:46:52;97956.72;;;11.31;89.22
73429;BME280;61643;49.564;17.412;2023-04-29T08:49:18;97949.69;;;11.25;90.81
73429;BME280;61643;49.564;17.412;2023-04-29T08:51:47;97958.31;;;11.22;91.27
73429;BME280;61643;49.564;17.412;2023-04-29T08:54:14;97964.25;;;11.19;92.12
73429;BME280;61643;49.564;17.412;2023-04-29T08:56:44;97959.66;;;11.10;90.79
73429;BME280;61643;49.564;17.412;2023-04-29T08:59:12;97956.69;;;11.11;90.53
73429;BME280;61643;49.564;17.412;2023-04-29T09:01:39;97945.91;;;11.11;89.14
73429;BME280;61643;49.564;17.412;2023-04-29T09:06:51;97956.41;;;11.08;89.39
73429;BME280;61643;49.564;17.412;2023-04-29T09:09:20;97964.22;;;11.04;89.53
73429;BME280;61643;49.564;17.412;2023-04-29T09:11:46;97962.59;;;10.98;90.39
73429;BME280;61643;49.564;17.412;2023-04-29T09:14:13;97977.69;;;10.99;91.54
73429;BME280;61643;49.564;17.412;2023-04-29T09:16:39;97969.03;;;10.97;91.61
73429;BME280;61643;49.564;17.412;2023-04-29T09:19:05;97977.13;;;10.97;92.26
73429;BME280;61643;49.564;17.412;2023-04-29T09:21:31;97975.25;;;10.98;94.32
73429;BME280;61643;49.564;17.412;2023-04-29T09:23:59;97979.81;;;10.92;96.40
73429;BME280;61643;49.564;17.412;2023-04-29T09:26:26;97987.53;;;10.73;99.41
73429;BME280;61643;49.564;17.412;2023-04-29T09:29:13;98005.81;;;10.71;100.00
73429;BME280;61643;49.564;17.412;2023-04-29T09:31:41;98006.59;;;10.62;100.00
73429;BME280;61643;49.564;17.412;2023-04-29T09:34:07;98012.47;;;10.54;100.00
73429;BME280;61643;49.564;17.412;2023-04-29T09:36:46;98012.59;;;10.32;100.00
73429;BME280;61643;49.564;17.412;2023-04-29T09:44:25;98017.78;;;10.07;100.00
73429;BME280;61643;49.564;17.412;2023-04-29T09:47:08;98009.56;;;10.18;100.00
73429;BME280;61643;49.564;17.412;2023-04-29T09:49:42;97991.31;;;10.25;100.00
73429;BME280;61643;49.564;17.412;2023-04-29T09:52:12;97986.47;;;10.22;100.00
73429;BME280;61643;49.564;17.412;2023-04-29T09:54:39;97978.09;;;10.19;100.00
73429;BME280;61643;49.564;17.412;2023-04-29T09:57:07;97993.97;;;10.20;100.00
73429;BME280;61643;49.564;17.412;2023-04-29T09:59:35;97994.00;;;10.25;100.00
73429;BME280;61643;49.564;17.412;2023-04-29T10:02:12;97989.47;;;10.31;100.00
73429;BME280;61643;49.564;17.412;2023-04-29T10:04:40;97996.19;;;10.28;100.00
73429;BME280;61643;49.564;17.412;2023-04-29T10:07:13;97989.94;;;10.18;100.00
73429;BME280;61643;49.564;17.412;2023-04-29T10:09:40;97973.53;;;10.19;100.00
73429;BME280;61643;49.564;17.412;2023-04-29T10:12:06;97981.66;;;10.29;100.00
73429;BME280;61643;49.564;17.412;2023-04-29T10:14:38;97978.16;;;10.29;100.00
73429;BME280;61643;49.564;17.412;2023-04-29T10:17:11;97977.91;;;10.30;100.00
73429;BME280;61643;49.564;17.412;2023-04-29T10:22:25;97965.81;;;10.33;100.00
73429;BME280;61643;49.564;17.412;2023-04-29T10:24:54;97958.00;;;10.31;100.00
73429;BME280;61643;49.564;17.412;2023-04-29T10:27:22;97963.16;;;10.38;100.00
73429;BME280;61643;49.564;17.412;2023-04-29T10:29:50;97957.00;;;10.48;100.00
73429;BME280;61643;49.564;17.412;2023-04-29T10:32:18;97956.78;;;10.54;100.00
73429;BME280;61643;49.564;17.412;2023-04-29T10:34:47;97947.09;;;10.58;100.00
73429;BME280;61643;49.564;17.412;2023-04-29T10:37:14;97946.59;;;10.66;100.00
73429;BME280;61643;49.564;17.412;2023-04-29T10:39:47;97950.09;;;10.72;100.00
73429;BME280;61643;49.564;17.412;2023-04-29T10:42:28;97954.47;;;10.83;100.00
73429;BME280;61643;49.564;17.412;2023-04-29T10:45:32;97957.44;;;10.97;100.00
73429;BME280;61643;49.564;17.412;2023-04-29T10:53:18;97959.41;;;11.36;100.00
73429;BME280;61643;49.564;17.412;2023-04-29T10:55:55;97956.19;;;11.45;100.00
73429;BME280;61643;49.564;17.412;2023-04-29T11:01:00;97946.50;;;11.49;100.00
73429;BME280;61643;49.564;17.412;2023-04-29T11:06:16;97943.28;;;11.57;100.00
73429;BME280;61643;49.564;17.412;2023-04-29T11:08:43;97938.94;;;11.66;100.00
73429;BME280;61643;49.564;17.412;2023-04-29T11:11:12;97937.34;;;11.70;100.00
73429;BME280;61643;49.564;17.412;2023-04-29T11:13:38;97940.34;;;11.78;100.00
73429;BME280;61643;49.564;17.412;2023-04-29T11:16:09;97947.59;;;11.83;100.00
73429;BME280;61643;49.564;17.412;2023-04-29T11:19:08;97943.00;;;11.99;100.00
73429;BME280;61643;49.564;17.412;2023-04-29T11:21:35;97944.88;;;12.13;100.00
73429;BME280;61643;49.564;17.412;2023-04-29T11:24:02;97949.69;;;12.31;100.00
73429;BME280;61643;49.564;17.412;2023-04-29T11:26:29;97947.53;;;12.28;100.00
73429;BME280;61643;49.564;17.412;2023-04-29T11:28:56;97945.66;;;12.24;100.00
73429;BME280;61643;49.564;17.412;2023-04-29T11:31:29;97958.56;;;12.47;100.00
73429;BME280;61643;49.564;17.412;2023-04-29T11:33:56;97942.31;;;12.52;100.00
73429;BME280;61643;49.564;17.412;2023-04-29T11:36:22;97946.81;;;12.77;100.00
73429;BME280;61643;49.564;17.412;2023-04-29T11:38:48;97951.31;;;12.92;100.00
73429;BME280;61643;49.564;17.412;2023-04-29T11:41:15;97935.41;;;12.90;100.00
73429;BME280;61643;49.564;17.412;2023-04-29T11:43:45;97941.81;;;13.04;100.00
73429;BME280;61643;49.564;17.412;2023-04-29T11:46:12;97950.19;;;13.03;100.00
73429;BME280;61643;49.564;17.412;2023-04-29T11:48:45;97949.66;;;13.06;100.00
73429;BME280;61643;49.564;17.412;2023-04-29T11:51:13;97952.88;;;13.08;100.00
73429;BME280;61643;49.564;17.412;2023-04-29T11:53:39;97949.13;;;12.99;97.92
73429;BME280;61643;49.564;17.412;2023-04-29T11:56:07;97951.53;;;13.05;100.00
73429;BME280;61643;49.564;17.412;2023-04-29T11:58:33;97959.94;;;12.99;100.00
73429;BME280;61643;49.564;17.412;2023-04-29T12:00:59;97959.66;;;13.00;100.00
73429;BME280;61643;49.564;17.412;2023-04-29T12:03:26;97961.88;;;12.93;100.00
73429;BME280;61643;49.564;17.412;2023-04-29T12:05:53;97957.03;;;12.90;100.00
73429;BME280;61643;49.564;17.412;2023-04-29T12:10:48;97947.28;;;12.89;100.00
73429;BME280;61643;49.564;17.412;2023-04-29T12:13:26;97946.16;;;13.00;100.00
73429;BME280;61643;49.564;17.412;2023-04-29T12:15:59;97924.56;;;12.95;97.46
73429;BME280;61643;49.564;17.412;2023-04-29T12:18:29;97944.16;;;13.21;98.66
73429;BME280;61643;49.564;17.412;2023-04-29T12:20:55;97938.66;;;13.36;97.19
73429;BME280;61643;49.564;17.412;2023-04-29T12:23:24;97945.94;;;13.41;96.80
73429;BME280;61643;49.564;17.412;2023-04-29T12:25:58;97942.81;;;13.62;96.09
73429;BME280;61643;49.564;17.412;2023-04-29T12:28:25;97923.78;;;13.72;97.14
73429;BME280;61643;49.564;17.412;2023-04-29T12:30:52;97931.63;;;14.03;95.65
73429;BME280;61643;49.564;17.412;2023-04-29T12:33:25;97930.50;;;14.04;93.32
73429;BME280;61643;49.564;17.412;2023-04-29T12:35:53;97930.28;;;14.00;93.53
73429;BME280;61643;49.564;17.412;2023-04-29T12:38:29;97932.69;;;14.07;94.28
73429;BME280;61643;49.564;17.412;2023-04-29T12:40:58;97929.09;;;14.11;91.81
73429;BME280;61643;49.564;17.412;2023-04-29T12:43:28;97925.91;;;14.04;93.24
73429;BME280;61643;49.564;17.412;2023-04-29T12:46:03;97922.25;;;13.90;91.35
73429;BME280;61643;49.564;17.412;2023-04-29T12:48:30;97926.94;;;13.85;92.18
73429;BME280;61643;49.564;17.412;2023-04-29T12:50:57;97918.00;;;13.84;93.09
73429;BME280;61643;49.564;17.412;2023-04-29T12:53:30;97913.63;;;13.88;95.59
73429;BME280;61643;49.564;17.412;2023-04-29T12:55:57;97912.72;;;13.98;95.99
73429;BME280;61643;49.564;17.412;2023-04-29T12:58:23;97911.34;;;14.00;93.44
73429;BME280;61643;49.564;17.412;2023-04-29T13:00:50;97916.97;;;14.04;93.68
73429;BME280;61643;49.564;17.412;2023-04-29T13:03:16;97905.84;;;14.10;94.06
73429;BME280;61643;49.564;17.412;2023-04-29T13:05:42;97912.34;;;14.09;92.42
73429;BME280;61643;49.564;17.412;2023-04-29T13:08:11;97908.25;;;14.12;92.37
73429;BME280;61643;49.564;17.412;2023-04-29T13:10:37;97910.69;;;14.13;94.83
73429;BME280;61643;49.564;17.412;2023-04-29T13:13:03;97898.22;;;14.12;94.22
73429;BME280;61643;49.564;17.412;2023-04-29T13:15:29;97903.06;;;14.15;93.58
73429;BME280;61643;49.564;17.412;2023-04-29T13:17:55;97902.56;;;14.13;91.63
73429;BME280;61643;49.564;17.412;2023-04-29T13:20:23;97907.41;;;14.16;93.29
73429;BME280;61643;49.564;17.412;2023-04-29T13:22:48;97908.13;;;14.22;94.13
73429;BME280;61643;49.564;17.412;2023-04-29T13:25:15;97905.16;;;14.23;93.35
73429;BME280;61643;49.564;17.412;2023-04-29T13:27:41;97906.19;;;14.27;92.55
73429;BME280;61643;49.564;17.412;2023-04-29T13:30:08;97907.59;;;14.25;91.98